sensor_id;sensor_type;location;lat;lon;timestamp;P1;durP1;ratioP1;P2;durP2;ratioP2
20653;SDS011;21083;50.898;4.902;2023-07-09T00:02:12;18.52;;;7.05;;
20653;SDS011;21083;50.898;4.902;2023-07-09T00:04:40;13.90;;;5.78;;
20653;SDS011;21083;50.898;4.902;2023-07-09T00:07:08;12.77;;;5.72;;
20653;SDS011;21083;50.898;4.902;2023-07-09T00:09:44;16.35;;;6.65;;
20653;SDS011;21083;50.898;4.902;2023-07-09T00:12:12;12.98;;;6.10;;
20653;SDS011;21083;50.898;4.902;2023-07-09T00:14:40;19.17;;;6.72;;
20653;SDS011;21083;50.898;4.902;2023-07-09T00:17:09;16.15;;;6.82;;
20653;SDS011;21083;50.898;4.902;2023-07-09T00:19:37;12.77;;;6.65;;
20653;SDS011;21083;50.898;4.902;2023-07-09T00:22:08;13.52;;;5.80;;
20653;SDS011;21083;50.898;4.902;2023-07-09T00:24:41;20.83;;;6.63;;
20653;SDS011;21083;50.898;4.902;2023-07-09T00:27:11;14.60;;;5.88;;
20653;SDS011;21083;50.898;4.902;2023-07-09T00:29:38;14.32;;;6.47;;
20653;SDS011;21083;50.898;4.902;2023-07-09T00:32:08;13.60;;;5.75;;
20653;SDS011;21083;50.898;4.902;2023-07-09T00:34:40;15.23;;;6.00;;
20653;SDS011;21083;50.898;4.902;2023-07-09T00:37:10;15.52;;;6.05;;
20653;SDS011;21083;50.898;4.902;2023-07-09T00:39:38;11.55;;;5.32;;
20653;SDS011;21083;50.898;4.902;2023-07-09T00:42:10;11.50;;;6.05;;
20653;SDS011;21083;50.898;4.902;2023-07-09T00:44:42;16.20;;;5.57;;
20653;SDS011;21083;50.898;4.902;2023-07-09T00:47:14;17.25;;;5.65;;
20653;SDS011;21083;50.898;4.902;2023-07-09T00:49:49;15.10;;;5.32;;
20653;SDS011;21083;50.898;4.902;2023-07-09T00:52:24;11.82;;;5.90;;
20653;SDS011;21083;50.898;4.902;2023-07-09T00:54:57;13.35;;;5.43;;
20653;SDS011;21083;50.898;4.902;2023-07-09T00:57:28;12.13;;;5.95;;
20653;SDS011;21083;50.898;4.902;2023-07-09T00:59:56;15.88;;;5.78;;
20653;SDS011;21083;50.898;4.902;2023-07-09T01:02:34;14.68;;;6.65;;
20653;SDS011;21083;50.898;4.902;2023-07-09T01:05:01;20.33;;;6.30;;
20653;SDS011;21083;50.898;4.902;2023-07-09T01:07:31;13.30;;;5.43;;
20653;SDS011;21083;50.898;4.902;2023-07-09T01:09:59;14.48;;;6.57;;
20653;SDS011;21083;50.898;4.902;2023-07-09T01:12:28;14.40;;;6.53;;
20653;SDS011;21083;50.898;4.902;2023-07-09T01:14:56;14.70;;;6.38;;
20653;SDS011;21083;50.898;4.902;2023-07-09T01:17:25;14.45;;;5.88;;
20653;SDS011;21083;50.898;4.902;2023-07-09T01:19:54;14.43;;;5.95;;
20653;SDS011;21083;50.898;4.902;2023-07-09T01:22:23;14.50;;;6.28;;
20653;SDS011;21083;50.898;4.902;2023-07-09T01:24:53;13.50;;;5.90;;
20653;SDS011;21083;50.898;4.902;2023-07-09T01:27:28;15.30;;;6.72;;
20653;SDS011;21083;50.898;4.902;2023-07-09T01:29:58;16.00;;;6.50;;
20653;SDS011;21083;50.898;4.902;2023-07-09T01:32:27;13.32;;;6.25;;
20653;SDS011;21083;50.898;4.902;2023-07-09T01:34:55;11.05;;;5.63;;
20653;SDS011;21083;50.898;4.902;2023-07-09T01:37:31;16.88;;;5.88;;
20653;SDS011;21083;50.898;4.902;2023-07-09T01:40:00;15.63;;;6.55;;
20653;SDS011;21083;50.898;4.902;2023-07-09T01:42:30;15.18;;;6.45;;
20653;SDS011;21083;50.898;4.902;2023-07-09T01:44:57;15.70;;;6.63;;
20653;SDS011;21083;50.898;4.902;2023-07-09T01:47:26;14.52;;;6.70;;
20653;SDS011;21083;50.898;4.902;2023-07-09T01:49:53;15.18;;;6.88;;
20653;SDS011;21083;50.898;4.902;2023-07-09T01:52:22;15.23;;;6.70;;
20653;SDS011;21083;50.898;4.902;2023-07-09T01:54:53;12.75;;;6.10;;
20653;SDS011;21083;50.898;4.902;2023-07-09T01:57:21;13.45;;;6.00;;
20653;SDS011;21083;50.898;4.902;2023-07-09T01:59:49;13.82;;;6.57;;
20653;SDS011;21083;50.898;4.902;2023-07-09T02:02:18;12.70;;;5.90;;
20653;SDS011;21083;50.898;4.902;2023-07-09T02:04:49;14.70;;;6.07;;
20653;SDS011;21083;50.898;4.902;2023-07-09T02:07:17;13.57;;;6.03;;
20653;SDS011;21083;50.898;4.902;2023-07-09T02:09:45;15.32;;;6.60;;
20653;SDS011;21083;50.898;4.902;2023-07-09T02:12:13;15.90;;;6.53;;
20653;SDS011;21083;50.898;4.902;2023-07-09T02:14:41;12.82;;;6.38;;
20653;SDS011;21083;50.898;4.902;2023-07-09T02:17:09;13.55;;;5.88;;
20653;SDS011;21083;50.898;4.902;2023-07-09T02:19:37;20.73;;;6.07;;
20653;SDS011;21083;50.898;4.902;2023-07-09T02:22:04;12.25;;;6.00;;
20653;SDS011;21083;50.898;4.902;2023-07-09T02:24:32;11.40;;;5.43;;
20653;SDS011;21083;50.898;4.902;2023-07-09T02:27:00;18.52;;;6.03;;
20653;SDS011;21083;50.898;4.902;2023-07-09T02:29:30;13.35;;;5.65;;
20653;SDS011;21083;50.898;4.902;2023-07-09T02:31:59;18.77;;;6.15;;
20653;SDS011;21083;50.898;4.902;2023-07-09T02:34:27;12.55;;;5.63;;
20653;SDS011;21083;50.898;4.902;2023-07-09T02:36:56;14.32;;;5.82;;
20653;SDS011;21083;50.898;4.902;2023-07-09T02:39:24;18.52;;;5.75;;
20653;SDS011;21083;50.898;4.902;2023-07-09T02:41:52;14.02;;;6.53;;
20653;SDS011;21083;50.898;4.902;2023-07-09T02:44:19;13.75;;;6.05;;
20653;SDS011;21083;50.898;4.902;2023-07-09T02:46:47;13.07;;;5.78;;
20653;SDS011;21083;50.898;4.902;2023-07-09T02:49:15;14.63;;;5.95;;
20653;SDS011;21083;50.898;4.902;2023-07-09T02:51:42;18.83;;;6.07;;
20653;SDS011;21083;50.898;4.902;2023-07-09T02:54:09;12.63;;;5.10;;
20653;SDS011;21083;50.898;4.902;2023-07-09T02:56:36;13.15;;;6.07;;
20653;SDS011;21083;50.898;4.902;2023-07-09T02:59:03;16.70;;;6.13;;
20653;SDS011;21083;50.898;4.902;2023-07-09T03:01:31;16.55;;;6.43;;
20653;SDS011;21083;50.898;4.902;2023-07-09T03:04:00;16.40;;;6.18;;
20653;SDS011;21083;50.898;4.902;2023-07-09T03:06:28;11.52;;;5.35;;
20653;SDS011;21083;50.898;4.902;2023-07-09T03:08:58;11.20;;;5.50;;
20653;SDS011;21083;50.898;4.902;2023-07-09T03:11:25;14.98;;;6.07;;
20653;SDS011;21083;50.898;4.902;2023-07-09T03:13:53;18.65;;;5.55;;
20653;SDS011;21083;50.898;4.902;2023-07-09T03:16:20;11.82;;;5.90;;
20653;SDS011;21083;50.898;4.902;2023-07-09T03:18:47;16.25;;;5.65;;
20653;SDS011;21083;50.898;4.902;2023-07-09T03:21:16;14.45;;;5.25;;
20653;SDS011;21083;50.898;4.902;2023-07-09T03:23:43;16.73;;;5.45;;
20653;SDS011;21083;50.898;4.902;2023-07-09T03:26:09;13.88;;;6.15;;
20653;SDS011;21083;50.898;4.902;2023-07-09T03:28:36;16.98;;;6.68;;
20653;SDS011;21083;50.898;4.902;2023-07-09T03:31:04;11.82;;;5.68;;
20653;SDS011;21083;50.898;4.902;2023-07-09T03:33:31;15.07;;;6.32;;
20653;SDS011;21083;50.898;4.902;2023-07-09T03:35:58;13.52;;;5.88;;
20653;SDS011;21083;50.898;4.902;2023-07-09T03:38:26;14.88;;;5.68;;
20653;SDS011;21083;50.898;4.902;2023-07-09T03:40:53;16.50;;;5.57;;
20653;SDS011;21083;50.898;4.902;2023-07-09T03:43:21;12.90;;;5.85;;
20653;SDS011;21083;50.898;4.902;2023-07-09T03:45:48;15.88;;;5.95;;
20653;SDS011;21083;50.898;4.902;2023-07-09T03:48:16;12.35;;;5.20;;
20653;SDS011;21083;50.898;4.902;2023-07-09T03:50:45;13.70;;;5.90;;
20653;SDS011;21083;50.898;4.902;2023-07-09T03:53:13;14.27;;;5.88;;
20653;SDS011;21083;50.898;4.902;2023-07-09T03:55:43;15.70;;;6.00;;
20653;SDS011;21083;50.898;4.902;2023-07-09T03:58:12;11.60;;;5.10;;
20653;SDS011;21083;50.898;4.902;2023-07-09T04:00:39;14.25;;;6.13;;
20653;SDS011;21083;50.898;4.902;2023-07-09T04:03:06;12.70;;;5.00;;
20653;SDS011;21083;50.898;4.902;2023-07-09T04:05:35;15.05;;;5.43;;
20653;SDS011;21083;50.898;4.902;2023-07-09T04:08:02;14.85;;;5.13;;
20653;SDS011;21083;50.898;4.902;2023-07-09T04:10:29;12.80;;;5.32;;
20653;SDS011;21083;50.898;4.902;2023-07-09T04:12:58;15.48;;;5.22;;
20653;SDS011;21083;50.898;4.902;2023-07-09T04:15:25;13.10;;;5.50;;
20653;SDS011;21083;50.898;4.902;2023-07-09T04:17:52;11.95;;;5.20;;
20653;SDS011;21083;50.898;4.902;2023-07-09T04:20:19;13.60;;;5.55;;
20653;SDS011;21083;50.898;4.902;2023-07-09T04:22:46;13.88;;;5.45;;
20653;SDS011;21083;50.898;4.902;2023-07-09T04:25:13;18.23;;;6.00;;
20653;SDS011;21083;50.898;4.902;2023-07-09T04:27:40;10.65;;;5.43;;
20653;SDS011;21083;50.898;4.902;2023-07-09T04:30:10;11.52;;;5.50;;
20653;SDS011;21083;50.898;4.902;2023-07-09T04:32:39;14.32;;;5.68;;
20653;SDS011;21083;50.898;4.902;2023-07-09T04:35:08;10.82;;;5.45;;
20653;SDS011;21083;50.898;4.902;2023-07-09T04:37:36;13.93;;;5.00;;
20653;SDS011;21083;50.898;4.902;2023-07-09T04:40:03;13.20;;;4.93;;
20653;SDS011;21083;50.898;4.902;2023-07-09T04:42:33;11.82;;;5.68;;
20653;SDS011;21083;50.898;4.902;2023-07-09T04:45:00;14.60;;;5.45;;
20653;SDS011;21083;50.898;4.902;2023-07-09T04:47:28;13.35;;;5.38;;
20653;SDS011;21083;50.898;4.902;2023-07-09T04:49:55;15.32;;;5.90;;
20653;SDS011;21083;50.898;4.902;2023-07-09T04:52:22;12.65;;;5.65;;
20653;SDS011;21083;50.898;4.902;2023-07-09T04:54:49;11.00;;;4.55;;
20653;SDS011;21083;50.898;4.902;2023-07-09T04:57:16;11.80;;;5.43;;
20653;SDS011;21083;50.898;4.902;2023-07-09T04:59:43;13.38;;;4.97;;
20653;SDS011;21083;50.898;4.902;2023-07-09T05:02:10;13.60;;;5.30;;
20653;SDS011;21083;50.898;4.902;2023-07-09T05:04:38;16.10;;;5.63;;
20653;SDS011;21083;50.898;4.902;2023-07-09T05:07:05;11.75;;;5.15;;
20653;SDS011;21083;50.898;4.902;2023-07-09T05:09:33;12.10;;;4.93;;
20653;SDS011;21083;50.898;4.902;2023-07-09T05:12:00;12.05;;;5.22;;
20653;SDS011;21083;50.898;4.902;2023-07-09T05:14:27;13.93;;;5.47;;
20653;SDS011;21083;50.898;4.902;2023-07-09T05:16:54;13.95;;;5.45;;
20653;SDS011;21083;50.898;4.902;2023-07-09T05:19:21;17.00;;;5.57;;
20653;SDS011;21083;50.898;4.902;2023-07-09T05:21:50;15.32;;;4.68;;
20653;SDS011;21083;50.898;4.902;2023-07-09T05:24:16;11.43;;;4.72;;
20653;SDS011;21083;50.898;4.902;2023-07-09T05:26:44;15.07;;;4.97;;
20653;SDS011;21083;50.898;4.902;2023-07-09T05:29:10;13.70;;;5.20;;
20653;SDS011;21083;50.898;4.902;2023-07-09T05:31:38;11.57;;;4.70;;
20653;SDS011;21083;50.898;4.902;2023-07-09T05:34:07;9.77;;;4.35;;
20653;SDS011;21083;50.898;4.902;2023-07-09T05:36:34;13.00;;;4.88;;
20653;SDS011;21083;50.898;4.902;2023-07-09T05:39:02;15.75;;;5.50;;
20653;SDS011;21083;50.898;4.902;2023-07-09T05:41:29;14.43;;;5.57;;
20653;SDS011;21083;50.898;4.902;2023-07-09T05:43:56;16.55;;;6.20;;
20653;SDS011;21083;50.898;4.902;2023-07-09T05:46:23;17.10;;;6.07;;
20653;SDS011;21083;50.898;4.902;2023-07-09T05:48:50;15.18;;;5.32;;
20653;SDS011;21083;50.898;4.902;2023-07-09T05:51:17;10.98;;;4.95;;
20653;SDS011;21083;50.898;4.902;2023-07-09T05:53:43;11.40;;;5.18;;
20653;SDS011;21083;50.898;4.902;2023-07-09T05:56:12;12.13;;;5.13;;
20653;SDS011;21083;50.898;4.902;2023-07-09T05:58:38;14.18;;;5.65;;
20653;SDS011;21083;50.898;4.902;2023-07-09T06:01:05;11.57;;;4.93;;
20653;SDS011;21083;50.898;4.902;2023-07-09T06:03:32;10.60;;;5.30;;
20653;SDS011;21083;50.898;4.902;2023-07-09T06:05:59;14.32;;;5.38;;
20653;SDS011;21083;50.898;4.902;2023-07-09T06:08:26;14.13;;;5.22;;
20653;SDS011;21083;50.898;4.902;2023-07-09T06:10:54;13.55;;;5.38;;
20653;SDS011;21083;50.898;4.902;2023-07-09T06:13:23;13.07;;;4.95;;
20653;SDS011;21083;50.898;4.902;2023-07-09T06:15:51;14.88;;;4.95;;
20653;SDS011;21083;50.898;4.902;2023-07-09T06:18:19;10.95;;;4.85;;
20653;SDS011;21083;50.898;4.902;2023-07-09T06:20:47;12.32;;;5.10;;
20653;SDS011;21083;50.898;4.902;2023-07-09T06:23:14;11.88;;;4.53;;
20653;SDS011;21083;50.898;4.902;2023-07-09T06:25:42;12.55;;;4.53;;
20653;SDS011;21083;50.898;4.902;2023-07-09T06:28:11;14.93;;;5.05;;
20653;SDS011;21083;50.898;4.902;2023-07-09T06:30:40;13.75;;;5.75;;
20653;SDS011;21083;50.898;4.902;2023-07-09T06:33:07;13.27;;;5.03;;
20653;SDS011;21083;50.898;4.902;2023-07-09T06:35:35;14.23;;;4.80;;
20653;SDS011;21083;50.898;4.902;2023-07-09T06:38:02;11.20;;;4.80;;
20653;SDS011;21083;50.898;4.902;2023-07-09T06:40:29;13.23;;;5.18;;
20653;SDS011;21083;50.898;4.902;2023-07-09T06:42:56;13.38;;;5.22;;
20653;SDS011;21083;50.898;4.902;2023-07-09T06:45:23;14.10;;;5.15;;
20653;SDS011;21083;50.898;4.902;2023-07-09T06:47:52;12.38;;;5.35;;
20653;SDS011;21083;50.898;4.902;2023-07-09T06:50:19;14.07;;;5.45;;
20653;SDS011;21083;50.898;4.902;2023-07-09T06:52:46;13.60;;;4.68;;
20653;SDS011;21083;50.898;4.902;2023-07-09T06:55:12;12.25;;;4.80;;
20653;SDS011;21083;50.898;4.902;2023-07-09T06:57:39;15.30;;;5.05;;
20653;SDS011;21083;50.898;4.902;2023-07-09T07:00:07;13.32;;;4.72;;
20653;SDS011;21083;50.898;4.902;2023-07-09T07:02:34;14.57;;;5.10;;
20653;SDS011;21083;50.898;4.902;2023-07-09T07:05:06;14.00;;;5.20;;
20653;SDS011;21083;50.898;4.902;2023-07-09T07:07:33;12.32;;;5.45;;
20653;SDS011;21083;50.898;4.902;2023-07-09T07:09:59;16.35;;;5.85;;
20653;SDS011;21083;50.898;4.902;2023-07-09T07:12:27;13.80;;;5.50;;
20653;SDS011;21083;50.898;4.902;2023-07-09T07:14:55;13.80;;;5.32;;
20653;SDS011;21083;50.898;4.902;2023-07-09T07:17:22;12.50;;;5.78;;
20653;SDS011;21083;50.898;4.902;2023-07-09T07:19:49;17.27;;;5.65;;
20653;SDS011;21083;50.898;4.902;2023-07-09T07:22:18;14.90;;;5.70;;
20653;SDS011;21083;50.898;4.902;2023-07-09T07:24:45;15.27;;;5.40;;
20653;SDS011;21083;50.898;4.902;2023-07-09T07:27:12;18.15;;;5.43;;
20653;SDS011;21083;50.898;4.902;2023-07-09T07:29:39;12.90;;;5.07;;
20653;SDS011;21083;50.898;4.902;2023-07-09T07:32:06;13.98;;;5.20;;
20653;SDS011;21083;50.898;4.902;2023-07-09T07:34:34;15.40;;;4.97;;
20653;SDS011;21083;50.898;4.902;2023-07-09T07:37:01;15.25;;;5.47;;
20653;SDS011;21083;50.898;4.902;2023-07-09T07:39:29;13.52;;;5.70;;
20653;SDS011;21083;50.898;4.902;2023-07-09T07:41:56;12.55;;;4.80;;
20653;SDS011;21083;50.898;4.902;2023-07-09T07:44:23;16.85;;;5.60;;
20653;SDS011;21083;50.898;4.902;2023-07-09T07:46:50;17.33;;;5.60;;
20653;SDS011;21083;50.898;4.902;2023-07-09T07:49:17;15.07;;;4.95;;
20653;SDS011;21083;50.898;4.902;2023-07-09T07:51:44;10.20;;;4.72;;
20653;SDS011;21083;50.898;4.902;2023-07-09T07:54:11;12.65;;;5.30;;
20653;SDS011;21083;50.898;4.902;2023-07-09T07:56:39;13.35;;;5.32;;
20653;SDS011;21083;50.898;4.902;2023-07-09T07:59:06;9.82;;;5.10;;
20653;SDS011;21083;50.898;4.902;2023-07-09T08:01:33;15.48;;;4.70;;
20653;SDS011;21083;50.898;4.902;2023-07-09T08:04:01;13.18;;;5.20;;
20653;SDS011;21083;50.898;4.902;2023-07-09T08:06:28;11.98;;;4.82;;
20653;SDS011;21083;50.898;4.902;2023-07-09T08:08:56;11.68;;;5.05;;
20653;SDS011;21083;50.898;4.902;2023-07-09T08:11:23;11.38;;;5.07;;
20653;SDS011;21083;50.898;4.902;2023-07-09T08:13:52;14.23;;;4.63;;
20653;SDS011;21083;50.898;4.902;2023-07-09T08:16:19;11.40;;;4.78;;
20653;SDS011;21083;50.898;4.902;2023-07-09T08:18:46;10.35;;;4.80;;
20653;SDS011;21083;50.898;4.902;2023-07-09T08:21:12;12.00;;;4.43;;
20653;SDS011;21083;50.898;4.902;2023-07-09T08:23:39;14.00;;;5.55;;
20653;SDS011;21083;50.898;4.902;2023-07-09T08:26:09;12.48;;;4.72;;
20653;SDS011;21083;50.898;4.902;2023-07-09T08:28:36;11.80;;;4.80;;
20653;SDS011;21083;50.898;4.902;2023-07-09T08:31:05;12.55;;;4.93;;
20653;SDS011;21083;50.898;4.902;2023-07-09T08:33:32;12.90;;;5.45;;
20653;SDS011;21083;50.898;4.902;2023-07-09T08:35:59;11.98;;;5.30;;
20653;SDS011;21083;50.898;4.902;2023-07-09T08:38:26;10.32;;;4.90;;
20653;SDS011;21083;50.898;4.902;2023-07-09T08:40:55;12.55;;;5.20;;
20653;SDS011;21083;50.898;4.902;2023-07-09T08:43:28;13.18;;;4.95;;
20653;SDS011;21083;50.898;4.902;2023-07-09T08:46:07;11.65;;;4.60;;
20653;SDS011;21083;50.898;4.902;2023-07-09T08:48:39;12.25;;;4.82;;
20653;SDS011;21083;50.898;4.902;2023-07-09T08:51:10;13.30;;;4.55;;
20653;SDS011;21083;50.898;4.902;2023-07-09T08:53:42;9.70;;;4.32;;
20653;SDS011;21083;50.898;4.902;2023-07-09T08:56:14;12.73;;;5.10;;
20653;SDS011;21083;50.898;4.902;2023-07-09T08:58:43;13.45;;;5.00;;
20653;SDS011;21083;50.898;4.902;2023-07-09T09:01:17;12.48;;;4.55;;
20653;SDS011;21083;50.898;4.902;2023-07-09T09:03:46;14.30;;;5.20;;
20653;SDS011;21083;50.898;4.902;2023-07-09T09:06:17;11.73;;;4.65;;
20653;SDS011;21083;50.898;4.902;2023-07-09T09:08:49;11.13;;;4.65;;
20653;SDS011;21083;50.898;4.902;2023-07-09T09:11:25;10.18;;;4.57;;
20653;SDS011;21083;50.898;4.902;2023-07-09T09:14:01;12.80;;;5.30;;
20653;SDS011;21083;50.898;4.902;2023-07-09T09:16:33;10.48;;;4.43;;
20653;SDS011;21083;50.898;4.902;2023-07-09T09:19:05;13.48;;;4.88;;
20653;SDS011;21083;50.898;4.902;2023-07-09T09:21:42;11.38;;;4.43;;
20653;SDS011;21083;50.898;4.902;2023-07-09T09:24:13;11.85;;;4.68;;
20653;SDS011;21083;50.898;4.902;2023-07-09T09:26:42;10.80;;;4.88;;
20653;SDS011;21083;50.898;4.902;2023-07-09T09:29:10;8.18;;;3.95;;
20653;SDS011;21083;50.898;4.902;2023-07-09T09:31:39;14.45;;;5.03;;
20653;SDS011;21083;50.898;4.902;2023-07-09T09:34:16;11.70;;;5.05;;
20653;SDS011;21083;50.898;4.902;2023-07-09T09:36:44;10.80;;;4.10;;
20653;SDS011;21083;50.898;4.902;2023-07-09T09:39:11;14.77;;;5.10;;
20653;SDS011;21083;50.898;4.902;2023-07-09T09:41:38;14.02;;;4.32;;
20653;SDS011;21083;50.898;4.902;2023-07-09T09:44:15;10.35;;;4.40;;
20653;SDS011;21083;50.898;4.902;2023-07-09T09:46:47;9.52;;;4.45;;
20653;SDS011;21083;50.898;4.902;2023-07-09T09:49:15;11.38;;;4.55;;
20653;SDS011;21083;50.898;4.902;2023-07-09T09:51:43;10.40;;;4.57;;
20653;SDS011;21083;50.898;4.902;2023-07-09T09:54:14;14.95;;;4.60;;
20653;SDS011;21083;50.898;4.902;2023-07-09T09:56:44;11.13;;;4.30;;
20653;SDS011;21083;50.898;4.902;2023-07-09T09:59:16;13.45;;;4.47;;
20653;SDS011;21083;50.898;4.902;2023-07-09T10:01:55;12.18;;;4.88;;
20653;SDS011;21083;50.898;4.902;2023-07-09T10:04:24;12.38;;;4.63;;
20653;SDS011;21083;50.898;4.902;2023-07-09T10:06:52;23.05;;;5.18;;
20653;SDS011;21083;50.898;4.902;2023-07-09T10:09:24;9.82;;;4.47;;
20653;SDS011;21083;50.898;4.902;2023-07-09T10:11:58;11.63;;;4.78;;
20653;SDS011;21083;50.898;4.902;2023-07-09T10:14:36;11.65;;;4.28;;
20653;SDS011;21083;50.898;4.902;2023-07-09T10:17:13;11.27;;;4.43;;
20653;SDS011;21083;50.898;4.902;2023-07-09T10:19:47;20.40;;;4.93;;
20653;SDS011;21083;50.898;4.902;2023-07-09T10:22:23;12.18;;;4.93;;
20653;SDS011;21083;50.898;4.902;2023-07-09T10:24:59;13.73;;;5.07;;
20653;SDS011;21083;50.898;4.902;2023-07-09T10:27:35;10.68;;;4.80;;
20653;SDS011;21083;50.898;4.902;2023-07-09T10:30:19;16.63;;;5.22;;
20653;SDS011;21083;50.898;4.902;2023-07-09T10:33:07;8.82;;;4.32;;
20653;SDS011;21083;50.898;4.902;2023-07-09T10:35:37;13.23;;;4.78;;
20653;SDS011;21083;50.898;4.902;2023-07-09T10:38:27;16.40;;;5.70;;
20653;SDS011;21083;50.898;4.902;2023-07-09T10:41:07;15.50;;;5.97;;
20653;SDS011;21083;50.898;4.902;2023-07-09T10:43:38;13.57;;;5.82;;
20653;SDS011;21083;50.898;4.902;2023-07-09T10:46:11;16.67;;;6.80;;
20653;SDS011;21083;50.898;4.902;2023-07-09T10:48:43;13.10;;;6.70;;
20653;SDS011;21083;50.898;4.902;2023-07-09T10:51:15;14.00;;;8.15;;
20653;SDS011;21083;50.898;4.902;2023-07-09T10:53:48;17.98;;;8.75;;
20653;SDS011;21083;50.898;4.902;2023-07-09T10:56:20;18.05;;;8.73;;
20653;SDS011;21083;50.898;4.902;2023-07-09T10:58:50;19.75;;;10.32;;
20653;SDS011;21083;50.898;4.902;2023-07-09T11:01:25;26.95;;;10.88;;
20653;SDS011;21083;50.898;4.902;2023-07-09T11:03:58;24.02;;;10.63;;
20653;SDS011;21083;50.898;4.902;2023-07-09T11:06:29;23.77;;;12.48;;
20653;SDS011;21083;50.898;4.902;2023-07-09T11:09:00;23.02;;;11.30;;
20653;SDS011;21083;50.898;4.902;2023-07-09T11:11:31;22.48;;;11.68;;
20653;SDS011;21083;50.898;4.902;2023-07-09T11:14:04;25.00;;;12.90;;
20653;SDS011;21083;50.898;4.902;2023-07-09T11:16:37;25.02;;;13.13;;
20653;SDS011;21083;50.898;4.902;2023-07-09T11:19:13;24.27;;;13.57;;
20653;SDS011;21083;50.898;4.902;2023-07-09T11:21:44;26.90;;;14.77;;
20653;SDS011;21083;50.898;4.902;2023-07-09T11:24:29;25.55;;;16.25;;
20653;SDS011;21083;50.898;4.902;2023-07-09T11:26:58;31.08;;;16.98;;
20653;SDS011;21083;50.898;4.902;2023-07-09T11:29:26;28.80;;;18.40;;
20653;SDS011;21083;50.898;4.902;2023-07-09T11:31:54;30.98;;;18.38;;
20653;SDS011;21083;50.898;4.902;2023-07-09T11:34:34;29.27;;;19.38;;
20653;SDS011;21083;50.898;4.902;2023-07-09T11:37:11;31.33;;;19.08;;
20653;SDS011;21083;50.898;4.902;2023-07-09T11:39:43;27.30;;;16.98;;
20653;SDS011;21083;50.898;4.902;2023-07-09T11:42:28;24.60;;;16.02;;
20653;SDS011;21083;50.898;4.902;2023-07-09T11:44:58;25.95;;;15.45;;
20653;SDS011;21083;50.898;4.902;2023-07-09T11:47:33;24.00;;;15.82;;
20653;SDS011;21083;50.898;4.902;2023-07-09T11:50:05;25.80;;;13.85;;
20653;SDS011;21083;50.898;4.902;2023-07-09T11:52:41;24.58;;;13.50;;
20653;SDS011;21083;50.898;4.902;2023-07-09T11:58:03;21.35;;;10.23;;
20653;SDS011;21083;50.898;4.902;2023-07-09T12:00:37;19.10;;;9.82;;
20653;SDS011;21083;50.898;4.902;2023-07-09T12:03:07;15.85;;;8.68;;
20653;SDS011;21083;50.898;4.902;2023-07-09T12:05:42;21.35;;;8.73;;
20653;SDS011;21083;50.898;4.902;2023-07-09T12:08:15;16.70;;;7.60;;
20653;SDS011;21083;50.898;4.902;2023-07-09T12:10:43;18.85;;;7.32;;
20653;SDS011;21083;50.898;4.902;2023-07-09T12:13:11;16.08;;;7.15;;
20653;SDS011;21083;50.898;4.902;2023-07-09T12:15:39;16.40;;;6.32;;
20653;SDS011;21083;50.898;4.902;2023-07-09T12:18:10;13.93;;;6.20;;
20653;SDS011;21083;50.898;4.902;2023-07-09T12:20:38;11.98;;;5.88;;
20653;SDS011;21083;50.898;4.902;2023-07-09T12:23:11;12.98;;;5.93;;
20653;SDS011;21083;50.898;4.902;2023-07-09T12:25:46;13.45;;;5.15;;
20653;SDS011;21083;50.898;4.902;2023-07-09T12:28:14;12.05;;;5.85;;
20653;SDS011;21083;50.898;4.902;2023-07-09T12:30:44;14.93;;;5.53;;
20653;SDS011;21083;50.898;4.902;2023-07-09T12:33:12;13.98;;;5.10;;
20653;SDS011;21083;50.898;4.902;2023-07-09T12:35:43;16.77;;;6.32;;
20653;SDS011;21083;50.898;4.902;2023-07-09T12:38:17;14.38;;;5.90;;
20653;SDS011;21083;50.898;4.902;2023-07-09T12:40:45;15.25;;;6.25;;
20653;SDS011;21083;50.898;4.902;2023-07-09T12:43:15;13.80;;;6.20;;
20653;SDS011;21083;50.898;4.902;2023-07-09T12:45:46;13.82;;;6.10;;
20653;SDS011;21083;50.898;4.902;2023-07-09T12:48:13;20.35;;;6.78;;
20653;SDS011;21083;50.898;4.902;2023-07-09T12:50:40;15.73;;;6.70;;
20653;SDS011;21083;50.898;4.902;2023-07-09T12:53:15;13.68;;;6.03;;
20653;SDS011;21083;50.898;4.902;2023-07-09T12:55:46;14.90;;;6.18;;
20653;SDS011;21083;50.898;4.902;2023-07-09T12:58:16;13.48;;;6.80;;
20653;SDS011;21083;50.898;4.902;2023-07-09T13:00:47;12.73;;;6.43;;
20653;SDS011;21083;50.898;4.902;2023-07-09T13:03:17;19.02;;;7.22;;
20653;SDS011;21083;50.898;4.902;2023-07-09T13:05:53;15.10;;;6.82;;
20653;SDS011;21083;50.898;4.902;2023-07-09T13:08:23;16.00;;;6.68;;
20653;SDS011;21083;50.898;4.902;2023-07-09T13:10:50;15.38;;;6.15;;
20653;SDS011;21083;50.898;4.902;2023-07-09T13:13:19;14.07;;;7.38;;
20653;SDS011;21083;50.898;4.902;2023-07-09T13:15:48;15.23;;;7.03;;
20653;SDS011;21083;50.898;4.902;2023-07-09T13:18:21;17.25;;;7.55;;
20653;SDS011;21083;50.898;4.902;2023-07-09T13:20:49;20.58;;;8.60;;
20653;SDS011;21083;50.898;4.902;2023-07-09T13:23:16;14.32;;;5.65;;
20653;SDS011;21083;50.898;4.902;2023-07-09T13:25:46;15.75;;;7.28;;
20653;SDS011;21083;50.898;4.902;2023-07-09T13:28:17;18.63;;;7.40;;
20653;SDS011;21083;50.898;4.902;2023-07-09T13:30:45;20.92;;;8.38;;
20653;SDS011;21083;50.898;4.902;2023-07-09T13:33:12;15.68;;;7.35;;
20653;SDS011;21083;50.898;4.902;2023-07-09T13:35:40;15.68;;;6.90;;
20653;SDS011;21083;50.898;4.902;2023-07-09T13:38:13;16.98;;;7.68;;
20653;SDS011;21083;50.898;4.902;2023-07-09T13:40:41;16.00;;;7.10;;
20653;SDS011;21083;50.898;4.902;2023-07-09T13:43:14;15.65;;;7.75;;
20653;SDS011;21083;50.898;4.902;2023-07-09T13:45:42;18.00;;;7.03;;
20653;SDS011;21083;50.898;4.902;2023-07-09T13:48:12;17.30;;;7.53;;
20653;SDS011;21083;50.898;4.902;2023-07-09T13:50:41;16.13;;;6.90;;
20653;SDS011;21083;50.898;4.902;2023-07-09T13:53:10;13.40;;;6.22;;
20653;SDS011;21083;50.898;4.902;2023-07-09T13:55:39;14.20;;;7.47;;
20653;SDS011;21083;50.898;4.902;2023-07-09T13:58:08;14.80;;;7.25;;
20653;SDS011;21083;50.898;4.902;2023-07-09T14:00:36;15.13;;;6.68;;
20653;SDS011;21083;50.898;4.902;2023-07-09T14:03:07;15.70;;;6.50;;
20653;SDS011;21083;50.898;4.902;2023-07-09T14:05:40;14.98;;;7.35;;
20653;SDS011;21083;50.898;4.902;2023-07-09T14:08:07;16.95;;;7.00;;
20653;SDS011;21083;50.898;4.902;2023-07-09T14:10:35;16.65;;;7.40;;
20653;SDS011;21083;50.898;4.902;2023-07-09T14:13:02;17.17;;;6.78;;
20653;SDS011;21083;50.898;4.902;2023-07-09T14:15:29;16.40;;;6.50;;
20653;SDS011;21083;50.898;4.902;2023-07-09T14:17:57;14.63;;;6.70;;
20653;SDS011;21083;50.898;4.902;2023-07-09T14:20:24;14.02;;;6.47;;
20653;SDS011;21083;50.898;4.902;2023-07-09T14:22:51;14.90;;;6.82;;
20653;SDS011;21083;50.898;4.902;2023-07-09T14:25:19;12.88;;;6.80;;
20653;SDS011;21083;50.898;4.902;2023-07-09T14:27:48;16.67;;;6.57;;
20653;SDS011;21083;50.898;4.902;2023-07-09T14:30:15;14.70;;;6.68;;
20653;SDS011;21083;50.898;4.902;2023-07-09T14:32:43;13.95;;;7.47;;
20653;SDS011;21083;50.898;4.902;2023-07-09T14:35:14;15.70;;;7.07;;
20653;SDS011;21083;50.898;4.902;2023-07-09T14:37:44;14.90;;;7.00;;
20653;SDS011;21083;50.898;4.902;2023-07-09T14:40:13;12.38;;;6.28;;
20653;SDS011;21083;50.898;4.902;2023-07-09T14:42:41;11.73;;;6.50;;
20653;SDS011;21083;50.898;4.902;2023-07-09T14:45:22;13.38;;;6.20;;
20653;SDS011;21083;50.898;4.902;2023-07-09T14:47:50;11.55;;;5.88;;
20653;SDS011;21083;50.898;4.902;2023-07-09T14:50:20;16.75;;;7.43;;